Time;durP1;ratioP1;P1;durP2;ratioP2;P2;SDS_P1;SDS_P2;PMS_P1;PMS_P2;Temp;Humidity;BMP_temperature;BMP_pressure;BME280_temperature;BME280_humidity;BME280_pressure;Samples;Min_cycle;Max_cycle;Signal;HPM_P1;HPM_P2
2023/07/17 00:00:32;;;;;;;4.77;3.13;;;27.50;45.20;;;;;;5053684;28;20224;-47
2023/07/17 00:02:57;;;;;;;5.03;3.03;;;27.50;45.30;;;;;;5059914;28;20192;-48
2023/07/17 00:05:23;;;;;;;3.57;2.80;;;27.50;45.30;;;;;;5061949;28;20271;-50
2023/07/17 00:07:48;;;;;;;4.50;2.93;;;27.50;45.20;;;;;;5041742;28;20283;-49
2023/07/17 00:10:14;;;;;;;3.23;2.93;;;27.60;45.00;;;;;;5041763;28;20192;-50
2023/07/17 00:12:40;;;;;;;4.70;3.60;;;27.50;45.00;;;;;;5054809;28;20401;-47
2023/07/17 00:15:07;;;;;;;4.60;3.20;;;27.50;45.00;;;;;;5061245;28;20191;-50
2023/07/17 00:17:36;;;;;;;3.57;3.27;;;27.50;45.30;;;;;;5066800;28;20437;-48
2023/07/17 00:20:06;;;;;;;6.47;3.37;;;27.50;45.30;;;;;;5069833;28;20490;-51
2023/07/17 00:22:32;;;;;;;6.40;3.43;;;27.40;45.00;;;;;;5070424;28;20442;-49
2023/07/17 00:24:58;;;;;;;3.70;2.70;;;27.40;45.20;;;;;;5062690;28;20442;-50
2023/07/17 00:27:26;;;;;;;5.03;2.53;;;27.30;45.30;;;;;;5072665;28;20187;-51
2023/07/17 00:29:52;;;;;;;3.43;3.13;;;27.30;45.60;;;;;;5063506;28;20207;-48
2023/07/17 00:32:18;;;;;;;5.30;3.20;;;27.30;45.40;;;;;;5068674;28;20438;-49
2023/07/17 00:34:44;;;;;;;3.13;2.83;;;27.30;45.20;;;;;;5073120;28;20272;-48
2023/07/17 00:37:09;;;;;;;5.10;2.97;;;27.30;45.40;;;;;;5069933;28;20245;-48
2023/07/17 00:39:35;;;;;;;3.50;3.17;;;27.30;45.40;;;;;;5077310;28;20228;-46
2023/07/17 00:42:01;;;;;;;4.00;3.40;;;27.20;45.60;;;;;;5067840;28;20206;-51
2023/07/17 00:44:27;;;;;;;4.57;3.83;;;27.10;45.80;;;;;;5070923;28;20246;-50
2023/07/17 00:46:54;;;;;;;3.20;2.90;;;27.00;46.40;;;;;;5084360;28;20436;-46
2023/07/17 00:49:25;;;;;;;4.00;2.90;;;26.90;46.80;;;;;;5076222;28;20558;-48
2023/07/17 00:51:53;;;;;;;6.07;3.13;;;26.80;46.70;;;;;;5060373;28;20444;-46
2023/07/17 00:54:19;;;;;;;3.80;3.00;;;26.90;46.70;;;;;;5076901;28;20426;-49
2023/07/17 00:56:46;;;;;;;5.10;3.13;;;26.90;46.40;;;;;;5074918;28;20495;-50
2023/07/17 00:59:12;;;;;;;3.57;2.93;;;26.90;46.40;;;;;;5071641;28;20469;-51
2023/07/17 01:01:40;;;;;;;4.60;3.43;;;26.80;46.60;;;;;;5069674;28;20438;-51
2023/07/17 01:04:06;;;;;;;4.53;2.90;;;26.80;46.80;;;;;;5086468;28;20468;-49
2023/07/17 01:06:32;;;;;;;5.80;3.27;;;26.70;47.10;;;;;;5072985;28;20799;-51
2023/07/17 01:09:01;;;;;;;2.83;2.50;;;26.60;47.20;;;;;;5084601;28;20528;-50
2023/07/17 01:11:27;;;;;;;6.10;3.63;;;26.60;47.20;;;;;;5077404;28;20674;-51
2023/07/17 01:13:52;;;;;;;4.53;3.20;;;26.50;47.60;;;;;;5082326;28;20462;-50
2023/07/17 01:16:18;;;;;;;4.13;3.50;;;26.50;47.60;;;;;;5077993;28;20207;-49
2023/07/17 01:18:44;;;;;;;7.50;3.90;;;26.50;47.50;;;;;;5076104;28;20215;-49
2023/07/17 01:21:12;;;;;;;5.90;3.00;;;26.60;47.30;;;;;;5066611;28;20683;-50
2023/07/17 01:23:38;;;;;;;3.40;2.97;;;26.70;47.30;;;;;;5063685;28;20243;-49
2023/07/17 01:26:14;;;;;;;4.20;2.70;;;26.70;47.30;;;;;;5069333;28;20466;-51
2023/07/17 01:28:41;;;;;;;4.43;3.50;;;26.60;47.40;;;;;;5079492;28;20261;-48
2023/07/17 01:31:07;;;;;;;4.03;2.93;;;26.60;47.30;;;;;;5063904;28;20491;-50
2023/07/17 01:33:33;;;;;;;3.20;2.80;;;26.60;47.40;;;;;;5066752;28;20447;-50
2023/07/17 01:36:00;;;;;;;4.70;3.30;;;26.60;47.50;;;;;;5074115;28;20815;-49
2023/07/17 01:38:26;;;;;;;4.40;3.20;;;26.30;48.00;;;;;;5070257;28;20442;-51
2023/07/17 01:40:52;;;;;;;6.20;3.30;;;26.30;48.10;;;;;;5068076;28;20492;-47
2023/07/17 01:43:17;;;;;;;7.33;3.27;;;26.40;48.20;;;;;;5071047;28;20199;-51
2023/07/17 01:45:43;;;;;;;5.77;3.10;;;26.50;49.00;;;;;;5077439;28;20434;-49
2023/07/17 01:48:09;;;;;;;3.27;3.00;;;26.60;49.20;;;;;;5068211;28;20203;-48
2023/07/17 01:50:35;;;;;;;3.60;3.10;;;26.60;49.30;;;;;;5073174;28;20191;-48
2023/07/17 01:53:01;;;;;;;4.33;3.00;;;26.70;49.00;;;;;;5073186;28;20196;-52
2023/07/17 01:55:26;;;;;;;4.50;3.20;;;26.80;48.80;;;;;;5054980;28;20438;-51
2023/07/17 01:57:52;;;;;;;4.87;3.80;;;26.80;48.80;;;;;;5071791;28;20212;-51
2023/07/17 02:00:17;;;;;;;4.37;3.30;;;26.90;49.60;;;;;;5056534;28;20239;-50
2023/07/17 02:02:43;;;;;;;3.17;2.80;;;26.80;50.10;;;;;;5087632;28;20599;-51
2023/07/17 02:05:09;;;;;;;3.60;3.17;;;26.60;50.40;;;;;;5076498;28;20664;-52
2023/07/17 02:07:35;;;;;;;4.47;3.80;;;26.60;50.10;;;;;;5074151;28;20295;-50
2023/07/17 02:10:00;;;;;;;3.67;3.30;;;26.60;50.00;;;;;;5080524;28;20200;-51
2023/07/17 02:12:26;;;;;;;4.23;3.33;;;26.50;50.00;;;;;;5062407;28;20236;-49
2023/07/17 02:14:51;;;;;;;3.00;2.80;;;26.60;49.90;;;;;;5065364;28;20195;-51
2023/07/17 02:17:17;;;;;;;5.73;3.83;;;26.60;50.40;;;;;;5072004;28;20229;-51
2023/07/17 02:19:42;;;;;;;5.93;3.80;;;26.50;50.70;;;;;;5079976;28;20224;-51
2023/07/17 02:22:08;;;;;;;5.07;3.60;;;26.40;50.80;;;;;;5067499;28;20196;-47
2023/07/17 02:24:34;;;;;;;4.00;3.60;;;26.30;51.20;;;;;;5065777;28;20193;-48
2023/07/17 02:27:01;;;;;;;4.60;3.40;;;26.20;52.00;;;;;;5066455;28;20196;-51
2023/07/17 02:29:26;;;;;;;4.00;3.40;;;26.10;52.00;;;;;;5071887;28;20200;-49
2023/07/17 02:31:52;;;;;;;4.53;2.97;;;26.10;52.00;;;;;;5071836;28;21137;-48
2023/07/17 02:34:18;;;;;;;5.00;4.10;;;26.10;51.90;;;;;;5076103;28;20195;-50
2023/07/17 02:36:43;;;;;;;4.43;3.73;;;26.10;51.80;;;;;;5076113;28;20218;-49
2023/07/17 02:39:09;;;;;;;3.53;3.03;;;26.10;51.60;;;;;;5075711;28;20191;-51
2023/07/17 02:41:34;;;;;;;4.50;4.07;;;26.20;51.60;;;;;;5074809;28;20199;-48
2023/07/17 02:44:00;;;;;;;3.20;2.90;;;26.20;51.30;;;;;;5075913;28;20191;-48
2023/07/17 02:46:26;;;;;;;4.73;3.60;;;26.30;51.00;;;;;;5070368;28;20192;-51
2023/07/17 02:48:52;;;;;;;4.00;3.60;;;26.30;50.90;;;;;;5082795;28;20195;-49
2023/07/17 02:51:17;;;;;;;5.33;3.33;;;26.30;50.80;;;;;;5073281;28;20197;-51
2023/07/17 02:53:43;;;;;;;3.77;3.10;;;26.40;51.00;;;;;;5075652;28;20444;-47
2023/07/17 02:56:12;;;;;;;4.57;3.30;;;26.40;51.10;;;;;;5072997;28;20201;-47
2023/07/17 02:58:42;;;;;;;5.10;3.87;;;26.40;51.10;;;;;;5057096;28;20197;-51
2023/07/17 03:01:08;;;;;;;3.83;3.47;;;26.40;51.20;;;;;;5070117;28;21057;-50
2023/07/17 03:03:34;;;;;;;4.87;3.33;;;26.40;51.50;;;;;;5080528;28;20537;-48
2023/07/17 03:06:00;;;;;;;3.97;3.47;;;26.30;51.60;;;;;;5082420;28;20556;-49
2023/07/17 03:08:26;;;;;;;3.80;3.50;;;26.30;51.60;;;;;;5064683;28;20199;-48
2023/07/17 03:10:52;;;;;;;3.73;3.43;;;26.30;51.70;;;;;;5053231;28;20604;-51
2023/07/17 03:13:20;;;;;;;4.30;3.70;;;26.20;51.90;;;;;;5055643;28;20482;-51
2023/07/17 03:15:47;;;;;;;4.60;3.67;;;26.20;51.90;;;;;;5055904;28;20919;-51
2023/07/17 03:18:12;;;;;;;5.10;3.97;;;26.20;51.90;;;;;;5057568;28;20451;-47
2023/07/17 03:20:43;;;;;;;5.00;3.23;;;26.20;51.80;;;;;;5050216;28;20497;-48
2023/07/17 03:23:08;;;;;;;4.33;3.47;;;26.20;51.90;;;;;;5054520;28;21201;-52
2023/07/17 03:25:34;;;;;;;5.53;4.27;;;26.20;52.00;;;;;;5051993;28;20453;-51
2023/07/17 03:28:00;;;;;;;5.83;3.67;;;26.10;52.10;;;;;;5066735;28;20274;-47
2023/07/17 03:30:26;;;;;;;4.57;3.47;;;26.10;52.30;;;;;;5072315;28;20202;-51
2023/07/17 03:32:51;;;;;;;3.90;3.47;;;26.10;52.40;;;;;;5070405;28;20433;-49
2023/07/17 03:35:17;;;;;;;4.57;3.40;;;26.10;52.10;;;;;;5072541;28;20206;-52
2023/07/17 03:37:42;;;;;;;3.70;3.40;;;26.10;51.80;;;;;;5053020;28;20227;-51
2023/07/17 03:40:10;;;;;;;4.10;3.70;;;26.20;51.60;;;;;;5054172;28;20226;-49
2023/07/17 03:42:36;;;;;;;4.03;3.30;;;26.20;51.50;;;;;;5072091;28;20203;-49
2023/07/17 03:45:02;;;;;;;3.53;2.90;;;26.20;51.60;;;;;;5056754;28;20798;-51
2023/07/17 03:47:27;;;;;;;3.90;3.03;;;26.30;51.60;;;;;;5054018;28;20446;-48
2023/07/17 03:49:53;;;;;;;4.90;3.27;;;26.30;51.30;;;;;;5075753;28;20289;-49
2023/07/17 03:52:19;;;;;;;4.50;3.87;;;26.30;51.20;;;;;;5066488;28;20318;-49
2023/07/17 03:54:45;;;;;;;4.20;3.00;;;26.30;51.20;;;;;;5057256;28;20573;-52
2023/07/17 03:57:10;;;;;;;5.20;3.60;;;26.20;51.70;;;;;;5058423;28;20947;-47
2023/07/17 03:59:55;;;;;;;6.00;3.87;;;26.20;51.50;;;;;;5076758;28;20485;-48
2023/07/17 04:02:22;;;;;;;5.00;2.90;;;26.20;51.50;;;;;;5068864;28;20539;-48
2023/07/17 04:04:48;;;;;;;5.93;3.60;;;26.20;51.50;;;;;;5068558;28;20446;-51
2023/07/17 04:07:14;;;;;;;4.60;3.10;;;26.20;51.30;;;;;;5078287;28;20539;-51
2023/07/17 04:09:40;;;;;;;4.90;3.30;;;26.10;52.00;;;;;;5070553;28;20442;-52
2023/07/17 04:12:06;;;;;;;4.10;3.37;;;26.10;51.50;;;;;;5070432;28;20192;-52
2023/07/17 04:14:33;;;;;;;5.93;3.83;;;26.00;51.90;;;;;;5068213;28;20199;-52
2023/07/17 04:16:59;;;;;;;4.00;3.70;;;26.00;51.90;;;;;;5056107;28;20853;-52
2023/07/17 04:19:26;;;;;;;4.20;3.13;;;26.00;52.00;;;;;;5065949;28;20491;-52
2023/07/17 04:21:52;;;;;;;3.93;3.53;;;26.00;52.00;;;;;;5064389;28;20192;-52
2023/07/17 04:24:17;;;;;;;5.97;3.83;;;26.00;52.20;;;;;;5056924;28;20535;-49
2023/07/17 04:26:43;;;;;;;4.63;3.27;;;26.00;52.10;;;;;;5053953;28;20190;-48
2023/07/17 04:29:10;;;;;;;3.80;3.40;;;26.00;52.20;;;;;;5066772;28;20223;-48
2023/07/17 04:31:36;;;;;;;3.83;3.43;;;26.00;52.10;;;;;;5053469;28;20197;-49
2023/07/17 04:34:02;;;;;;;7.87;3.90;;;26.10;52.00;;;;;;5055685;28;20930;-52
2023/07/17 04:36:27;;;;;;;4.10;3.70;;;26.10;52.10;;;;;;5058502;28;20195;-51
2023/07/17 04:38:53;;;;;;;4.20;3.33;;;26.10;52.00;;;;;;5056874;28;20196;-51
2023/07/17 04:41:19;;;;;;;4.70;3.80;;;26.10;52.10;;;;;;5060965;28;20220;-52
2023/07/17 04:43:44;;;;;;;5.23;3.43;;;26.10;52.10;;;;;;5068924;28;20191;-52
2023/07/17 04:46:10;;;;;;;4.60;3.50;;;26.00;52.10;;;;;;5072573;28;20708;-52
2023/07/17 04:48:36;;;;;;;5.80;3.87;;;25.90;52.30;;;;;;5075844;28;20192;-52
2023/07/17 04:51:01;;;;;;;4.57;3.40;;;25.60;53.10;;;;;;5075692;28;20187;-51
2023/07/17 04:53:27;;;;;;;4.40;4.00;;;25.50;53.30;;;;;;5071814;28;20244;-50
2023/07/17 04:55:52;;;;;;;4.23;3.83;;;25.60;53.30;;;;;;5071587;28;20660;-50
2023/07/17 04:58:19;;;;;;;6.80;3.60;;;25.70;53.40;;;;;;5066944;28;20198;-51
2023/07/17 05:00:46;;;;;;;4.10;3.53;;;25.80;53.30;;;;;;5069716;28;20223;-51
2023/07/17 05:03:13;;;;;;;3.70;3.27;;;25.90;53.00;;;;;;5064139;28;20449;-51
2023/07/17 05:05:39;;;;;;;3.90;3.30;;;25.90;53.00;;;;;;5070119;28;20778;-49
2023/07/17 05:08:05;;;;;;;5.00;3.50;;;26.00;52.80;;;;;;5058639;28;20434;-48
2023/07/17 05:10:31;;;;;;;6.40;4.30;;;26.10;52.60;;;;;;5068213;28;20958;-50
2023/07/17 05:12:59;;;;;;;5.67;3.70;;;26.20;52.40;;;;;;5066182;28;20475;-47
2023/07/17 05:15:24;;;;;;;6.90;4.03;;;26.30;52.20;;;;;;5075647;28;20861;-49
2023/07/17 05:17:50;;;;;;;4.10;3.73;;;26.30;52.00;;;;;;5065102;28;20659;-46
2023/07/17 05:20:16;;;;;;;4.20;3.13;;;26.40;52.00;;;;;;5062225;28;20227;-49
2023/07/17 05:22:42;;;;;;;4.33;3.60;;;26.30;51.90;;;;;;5056200;28;20836;-47
2023/07/17 05:25:08;;;;;;;5.30;3.50;;;26.30;52.60;;;;;;5072354;28;20461;-47
2023/07/17 05:27:34;;;;;;;4.13;3.20;;;26.40;51.80;;;;;;5063522;28;20184;-49
2023/07/17 05:29:59;;;;;;;6.73;4.00;;;26.30;51.70;;;;;;5062364;28;20258;-48
2023/07/17 05:32:25;;;;;;;4.73;3.53;;;26.30;51.80;;;;;;5069682;28;20197;-47
2023/07/17 05:34:51;;;;;;;4.07;3.27;;;26.30;52.00;;;;;;5065235;28;20220;-52
2023/07/17 05:37:18;;;;;;;3.30;3.00;;;26.30;52.10;;;;;;5076981;28;20217;-51
2023/07/17 05:39:44;;;;;;;5.17;3.60;;;26.40;52.00;;;;;;5070825;28;20493;-51
2023/07/17 05:42:10;;;;;;;3.33;2.90;;;26.50;51.70;;;;;;5055271;28;20433;-52
2023/07/17 05:44:35;;;;;;;4.50;3.40;;;26.50;51.60;;;;;;5063516;28;20494;-48
2023/07/17 05:47:01;;;;;;;4.33;3.23;;;26.60;51.40;;;;;;5068254;28;20200;-48
2023/07/17 05:49:26;;;;;;;4.50;3.30;;;26.60;51.40;;;;;;5081476;28;20769;-48
2023/07/17 05:51:52;;;;;;;3.73;3.37;;;26.70;51.00;;;;;;5075099;28;20196;-49
2023/07/17 05:54:17;;;;;;;4.87;3.70;;;26.70;50.90;;;;;;5070245;28;20192;-49
2023/07/17 05:56:43;;;;;;;5.40;3.30;;;26.70;51.00;;;;;;5071837;28;20211;-48
2023/07/17 05:59:09;;;;;;;4.40;3.07;;;26.70;50.90;;;;;;5073589;28;20191;-50
2023/07/17 06:01:34;;;;;;;4.17;3.40;;;26.70;50.90;;;;;;5063092;28;20241;-48
2023/07/17 06:04:00;;;;;;;5.83;3.70;;;26.80;50.80;;;;;;5067429;28;20518;-48
2023/07/17 06:06:26;;;;;;;3.87;3.10;;;26.90;50.70;;;;;;5069352;28;20195;-50
2023/07/17 06:08:51;;;;;;;4.07;3.67;;;26.90;50.70;;;;;;5062892;28;20229;-51
2023/07/17 06:11:17;;;;;;;5.30;3.17;;;26.80;50.90;;;;;;5071785;28;20188;-49
2023/07/17 06:13:43;;;;;;;4.93;3.43;;;26.80;51.00;;;;;;5071625;28;20680;-47
2023/07/17 06:16:08;;;;;;;5.17;3.10;;;26.80;50.80;;;;;;5073294;28;20195;-47
2023/07/17 06:18:35;;;;;;;6.17;3.70;;;26.90;50.50;;;;;;5076706;28;20211;-51
2023/07/17 06:21:00;;;;;;;5.90;3.47;;;27.10;50.00;;;;;;5070109;28;20877;-50
2023/07/17 06:23:26;;;;;;;6.10;3.70;;;27.00;50.30;;;;;;5068180;28;20441;-47
2023/07/17 06:25:51;;;;;;;4.90;3.33;;;27.00;49.90;;;;;;5067482;28;20184;-49
2023/07/17 06:28:17;;;;;;;3.50;3.20;;;27.10;49.50;;;;;;5065475;28;20196;-47
2023/07/17 06:30:46;;;;;;;4.37;3.70;;;27.20;49.00;;;;;;5067804;28;20561;-48
2023/07/17 06:33:12;;;;;;;4.37;2.90;;;27.20;48.50;;;;;;5073632;28;20199;-48
2023/07/17 06:35:37;;;;;;;3.87;3.43;;;27.10;48.50;;;;;;5065100;28;20913;-51
2023/07/17 06:38:03;;;;;;;7.47;3.20;;;27.10;48.00;;;;;;5060962;28;20275;-49
2023/07/17 06:40:28;;;;;;;7.30;3.13;;;26.90;48.50;;;;;;5065708;28;20278;-48
2023/07/17 06:42:55;;;;;;;7.20;3.57;;;26.70;49.00;;;;;;5065894;28;20200;-48
2023/07/17 06:45:20;;;;;;;3.57;3.10;;;26.80;48.90;;;;;;5069820;28;20195;-50
2023/07/17 06:47:46;;;;;;;5.60;3.70;;;26.90;48.80;;;;;;5066282;28;20496;-50
2023/07/17 06:50:12;;;;;;;3.77;2.90;;;27.10;48.10;;;;;;5073212;28;20199;-48
2023/07/17 06:52:38;;;;;;;7.17;3.80;;;27.20;48.40;;;;;;5076957;28;20198;-48
2023/07/17 06:55:05;;;;;;;5.57;3.80;;;27.40;48.30;;;;;;5073313;28;20274;-51
2023/07/17 06:57:32;;;;;;;5.10;3.40;;;27.50;47.70;;;;;;5077399;28;20804;-47
2023/07/17 06:59:57;;;;;;;3.87;3.43;;;27.60;47.30;;;;;;5070373;28;21997;-48
2023/07/17 07:02:23;;;;;;;3.60;2.93;;;27.70;47.20;;;;;;5071620;28;20500;-51
2023/07/17 07:04:49;;;;;;;8.97;3.50;;;27.80;47.00;;;;;;5068144;28;20199;-48
2023/07/17 07:07:14;;;;;;;4.50;3.13;;;27.90;46.70;;;;;;5067529;28;20200;-47
2023/07/17 07:09:40;;;;;;;5.60;3.80;;;28.10;46.30;;;;;;5072316;28;20548;-47
2023/07/17 07:12:06;;;;;;;6.93;3.80;;;28.30;45.80;;;;;;5064138;28;20251;-49
2023/07/17 07:14:31;;;;;;;5.37;3.10;;;28.20;44.50;;;;;;5072076;28;20222;-50
2023/07/17 07:16:57;;;;;;;5.60;3.73;;;28.10;44.30;;;;;;5070286;28;20430;-48
2023/07/17 07:19:22;;;;;;;3.93;3.53;;;28.10;44.10;;;;;;5068384;28;20297;-48
2023/07/17 07:21:48;;;;;;;5.10;3.43;;;28.00;44.10;;;;;;5071342;28;20188;-50
2023/07/17 07:24:14;;;;;;;7.10;4.07;;;28.10;44.20;;;;;;5070953;28;20207;-51
2023/07/17 07:26:39;;;;;;;6.77;4.23;;;28.30;44.00;;;;;;5061084;28;20269;-50
2023/07/17 07:29:05;;;;;;;4.83;3.47;;;28.60;43.40;;;;;;5070382;28;20219;-48
2023/07/17 07:31:30;;;;;;;5.03;3.90;;;28.70;42.60;;;;;;5070151;28;20336;-48
2023/07/17 07:33:56;;;;;;;4.10;3.00;;;28.90;42.20;;;;;;5070682;28;20192;-47
2023/07/17 07:36:22;;;;;;;7.53;4.20;;;29.00;42.10;;;;;;5066462;28;20280;-47
2023/07/17 07:38:48;;;;;;;6.30;4.53;;;29.10;41.20;;;;;;5082450;28;20561;-47
2023/07/17 07:41:14;;;;;;;5.33;4.20;;;29.10;40.50;;;;;;5075090;28;20485;-48
2023/07/17 07:43:40;;;;;;;6.77;3.80;;;29.10;40.60;;;;;;5069478;28;20286;-49
2023/07/17 07:46:06;;;;;;;7.73;4.27;;;29.30;40.20;;;;;;5076975;28;20527;-49
2023/07/17 07:48:31;;;;;;;6.90;4.63;;;29.40;39.70;;;;;;5072643;28;20211;-48
2023/07/17 07:50:57;;;;;;;4.80;3.97;;;29.50;37.80;;;;;;5070012;28;20196;-49
2023/07/17 07:53:22;;;;;;;6.50;5.10;;;29.60;38.00;;;;;;5071499;28;20532;-47
2023/07/17 07:55:48;;;;;;;5.77;5.27;;;29.60;36.70;;;;;;5071056;28;20656;-47
2023/07/17 07:58:14;;;;;;;5.43;4.50;;;29.70;36.60;;;;;;5067147;28;20224;-48
2023/07/17 08:00:39;;;;;;;8.07;5.10;;;29.80;36.50;;;;;;5057401;28;20224;-48
2023/07/17 08:03:05;;;;;;;7.00;5.07;;;29.60;35.90;;;;;;5057354;28;20574;-53
2023/07/17 08:05:30;;;;;;;8.50;4.40;;;29.50;35.70;;;;;;5057244;28;20196;-47
2023/07/17 08:07:56;;;;;;;6.97;4.90;;;29.60;35.90;;;;;;5074650;28;20696;-49
2023/07/17 08:10:22;;;;;;;6.27;5.00;;;29.80;36.40;;;;;;5070520;28;20183;-48
2023/07/17 08:12:48;;;;;;;9.10;5.03;;;30.20;35.80;;;;;;5072725;28;20251;-48
2023/07/17 08:15:14;;;;;;;6.10;5.50;;;30.30;34.50;;;;;;5064736;28;20984;-48
2023/07/17 08:17:40;;;;;;;6.30;5.10;;;30.40;33.80;;;;;;5076517;28;20196;-49
2023/07/17 08:20:06;;;;;;;6.40;5.00;;;30.50;33.00;;;;;;5056903;28;20281;-49
2023/07/17 08:22:32;;;;;;;6.83;4.93;;;30.70;33.90;;;;;;5069735;28;20239;-50
2023/07/17 08:24:57;;;;;;;5.50;4.90;;;30.80;33.10;;;;;;5066825;28;20942;-51
2023/07/17 08:27:23;;;;;;;7.97;4.97;;;30.70;32.40;;;;;;5058841;28;20191;-48
2023/07/17 08:29:49;;;;;;;7.00;4.73;;;30.60;33.40;;;;;;5070881;28;20243;-49
2023/07/17 08:32:14;;;;;;;6.57;5.40;;;30.50;34.20;;;;;;5074665;28;20187;-48
2023/07/17 08:34:40;;;;;;;5.73;4.80;;;30.40;33.90;;;;;;5064884;28;20195;-47
2023/07/17 08:37:05;;;;;;;5.00;4.57;;;30.10;33.10;;;;;;5060830;28;20199;-49
2023/07/17 08:39:31;;;;;;;5.43;4.70;;;30.10;33.40;;;;;;5071439;28;20650;-50
2023/07/17 08:41:57;;;;;;;4.83;4.30;;;30.30;32.50;;;;;;5074725;28;20211;-50
2023/07/17 08:44:22;;;;;;;5.90;4.93;;;30.40;32.30;;;;;;5069691;28;20651;-48
2023/07/17 08:46:50;;;;;;;9.13;4.90;;;30.50;32.00;;;;;;5071213;28;20670;-47
2023/07/17 08:49:19;;;;;;;5.37;4.67;;;30.80;31.70;;;;;;5078555;28;20569;-52
2023/07/17 08:51:49;;;;;;;5.40;4.73;;;30.80;31.00;;;;;;5083159;28;21308;-52
2023/07/17 08:54:16;;;;;;;7.83;5.37;;;31.00;32.50;;;;;;5068040;28;20495;-48
2023/07/17 08:56:42;;;;;;;5.23;4.43;;;30.90;31.30;;;;;;5072514;28;20441;-48
2023/07/17 08:59:10;;;;;;;7.40;4.90;;;30.90;31.80;;;;;;5072325;28;20446;-48
2023/07/17 09:01:37;;;;;;;5.73;4.63;;;31.20;31.30;;;;;;5071903;28;20812;-52
2023/07/17 09:04:07;;;;;;;5.50;4.43;;;31.20;31.00;;;;;;5076646;28;20438;-49
2023/07/17 09:06:33;;;;;;;5.17;4.70;;;31.40;31.40;;;;;;5065953;28;20436;-51
2023/07/17 09:08:59;;;;;;;5.23;4.33;;;31.70;32.10;;;;;;5061849;28;20446;-50
2023/07/17 09:11:24;;;;;;;6.90;5.10;;;31.90;31.20;;;;;;5062680;28;20200;-47
2023/07/17 09:13:50;;;;;;;6.43;4.83;;;32.10;30.00;;;;;;5065480;28;20535;-49
2023/07/17 09:16:21;;;;;;;5.30;3.90;;;31.90;29.30;;;;;;5058903;28;20199;-50
2023/07/17 09:18:47;;;;;;;7.73;4.47;;;31.80;29.10;;;;;;5063613;28;20223;-49
2023/07/17 09:21:14;;;;;;;6.27;4.60;;;31.70;29.80;;;;;;5070405;28;20482;-53
2023/07/17 09:23:48;;;;;;;6.40;4.87;;;31.70;29.60;;;;;;5078175;28;20466;-48
2023/07/17 09:26:16;;;;;;;5.27;4.60;;;31.50;29.10;;;;;;5076044;28;20886;-48
2023/07/17 09:28:48;;;;;;;7.50;4.97;;;31.20;29.50;;;;;;5080279;28;20445;-47
2023/07/17 09:31:15;;;;;;;8.30;5.17;;;31.20;29.60;;;;;;5076552;28;20940;-47
2023/07/17 09:33:41;;;;;;;6.63;4.80;;;31.30;29.80;;;;;;5071448;28;20433;-47
2023/07/17 09:36:10;;;;;;;5.33;4.40;;;31.30;30.00;;;;;;5077709;28;20866;-48
2023/07/17 09:38:35;;;;;;;4.97;3.87;;;31.50;30.40;;;;;;5079728;28;20531;-48
2023/07/17 09:41:17;;;;;;;8.10;4.20;;;31.40;29.80;;;;;;5077716;28;20493;-47
2023/07/17 09:43:42;;;;;;;6.40;4.60;;;31.50;30.20;;;;;;5058766;28;20554;-48
2023/07/17 09:46:09;;;;;;;7.13;4.63;;;31.40;30.00;;;;;;5067463;28;20442;-50
2023/07/17 09:48:35;;;;;;;9.43;4.50;;;31.20;30.10;;;;;;5070431;28;20239;-50
2023/07/17 09:51:03;;;;;;;4.57;4.17;;;31.20;30.00;;;;;;5077102;28;20433;-50
2023/07/17 09:53:31;;;;;;;7.30;4.77;;;31.30;30.80;;;;;;5078270;28;20854;-52
2023/07/17 09:55:57;;;;;;;4.80;4.40;;;31.40;30.70;;;;;;5066850;28;20484;-48
2023/07/17 09:58:26;;;;;;;5.07;4.57;;;31.40;30.00;;;;;;5067753;28;20890;-50
2023/07/17 10:00:55;;;;;;;5.60;4.83;;;31.50;30.00;;;;;;5070530;28;20480;-51
2023/07/17 10:03:23;;;;;;;5.00;4.10;;;31.50;30.10;;;;;;5068765;28;20439;-49
2023/07/17 10:05:51;;;;;;;6.30;4.87;;;31.50;29.80;;;;;;5087675;28;20802;-50
2023/07/17 10:08:18;;;;;;;6.03;4.27;;;31.60;30.00;;;;;;5077027;28;20434;-50
2023/07/17 10:10:43;;;;;;;6.50;4.80;;;31.70;30.00;;;;;;5075160;28;20442;-47
2023/07/17 10:13:10;;;;;;;7.27;4.77;;;31.60;30.00;;;;;;5071852;28;20476;-50
2023/07/17 10:15:37;;;;;;;5.00;4.50;;;31.60;30.00;;;;;;5080523;28;20576;-48
2023/07/17 10:18:08;;;;;;;6.90;5.40;;;31.60;30.00;;;;;;5073224;28;20882;-48
2023/07/17 10:20:36;;;;;;;5.93;4.43;;;31.70;30.20;;;;;;5078920;28;20499;-47
2023/07/17 10:23:01;;;;;;;6.43;4.90;;;31.60;30.00;;;;;;5079540;28;20522;-48
2023/07/17 10:25:27;;;;;;;6.60;4.90;;;31.70;30.20;;;;;;5075392;28;20437;-48
2023/07/17 10:27:57;;;;;;;6.13;4.67;;;31.70;30.70;;;;;;5084497;28;20184;-47
2023/07/17 10:30:31;;;;;;;5.53;4.43;;;31.50;30.40;;;;;;5079089;28;20438;-51
2023/07/17 10:33:16;;;;;;;5.10;4.40;;;31.20;30.50;;;;;;5068361;28;20533;-47
2023/07/17 10:35:55;;;;;;;5.33;4.83;;;31.10;30.80;;;;;;5066968;28;20505;-47
2023/07/17 10:38:24;;;;;;;6.27;4.27;;;30.60;30.70;;;;;;5077198;28;20786;-47
2023/07/17 10:41:00;;;;;;;6.00;5.00;;;30.70;31.60;;;;;;5071453;28;21013;-51
2023/07/17 10:43:26;;;;;;;7.17;5.20;;;30.90;31.60;;;;;;5072215;28;20480;-51
2023/07/17 10:45:52;;;;;;;5.33;4.80;;;30.80;31.20;;;;;;5073509;28;20437;-47
2023/07/17 10:48:18;;;;;;;6.87;5.03;;;30.90;31.80;;;;;;5070455;28;20937;-47
2023/07/17 10:50:52;;;;;;;5.97;5.37;;;31.10;31.00;;;;;;5071940;28;20572;-50
2023/07/17 10:53:18;;;;;;;5.77;5.20;;;31.00;31.30;;;;;;5072457;28;20232;-48
2023/07/17 10:55:46;;;;;;;5.10;4.60;;;31.30;31.10;;;;;;5061150;28;20473;-49
2023/07/17 10:58:12;;;;;;;9.90;6.57;;;31.40;31.40;;;;;;5067068;28;20465;-47
2023/07/17 11:00:42;;;;;;;6.27;4.77;;;31.60;30.80;;;;;;5061391;28;21030;-47
2023/07/17 11:03:08;;;;;;;6.03;4.87;;;31.60;30.50;;;;;;5071251;28;20899;-48
2023/07/17 11:05:38;;;;;;;5.63;5.00;;;31.60;30.40;;;;;;5078305;28;20773;-47
2023/07/17 11:08:05;;;;;;;5.47;4.97;;;31.70;30.10;;;;;;5080596;28;20806;-46
2023/07/17 11:10:30;;;;;;;5.77;4.27;;;31.90;29.90;;;;;;5071136;28;20807;-49
2023/07/17 11:13:03;;;;;;;6.33;5.13;;;32.00;30.00;;;;;;5070751;28;20478;-49
2023/07/17 11:15:32;;;;;;;6.90;5.47;;;32.10;30.60;;;;;;5073435;28;20341;-47
2023/07/17 11:18:01;;;;;;;5.23;4.40;;;32.30;30.40;;;;;;5081002;28;20523;-50
2023/07/17 11:20:28;;;;;;;6.00;4.70;;;32.60;30.00;;;;;;5075291;28;20829;-48
2023/07/17 11:22:54;;;;;;;6.00;4.60;;;32.90;29.90;;;;;;5071758;28;20446;-49
2023/07/17 11:25:21;;;;;;;5.90;4.90;;;33.10;29.70;;;;;;5067198;28;20437;-48
2023/07/17 11:27:47;;;;;;;5.50;4.93;;;33.20;29.00;;;;;;5067169;28;20445;-48
2023/07/17 11:30:28;;;;;;;5.23;4.60;;;33.20;28.30;;;;;;5074322;28;20825;-47
2023/07/17 11:32:57;;;;;;;5.30;4.80;;;33.10;28.80;;;;;;5072024;28;20274;-48
2023/07/17 11:35:24;;;;;;;5.50;5.00;;;33.20;28.70;;;;;;5074784;28;20450;-48
2023/07/17 11:37:49;;;;;;;6.67;5.20;;;33.30;29.00;;;;;;5080662;28;21002;-47
2023/07/17 11:40:15;;;;;;;5.30;4.80;;;33.50;29.30;;;;;;5073117;28;20488;-48
2023/07/17 11:42:57;;;;;;;5.40;4.90;;;33.90;29.50;;;;;;5076853;28;20562;-48
2023/07/17 11:45:27;;;;;;;6.40;5.27;;;33.70;28.40;;;;;;5069473;28;20233;-50
2023/07/17 11:47:54;;;;;;;9.00;5.00;;;33.70;28.60;;;;;;5062840;28;20439;-51
2023/07/17 11:50:23;;;;;;;5.67;5.13;;;33.90;28.50;;;;;;5065379;28;20468;-52
2023/07/17 11:52:48;;;;;;;5.70;5.00;;;34.10;28.70;;;;;;5058674;28;20857;-52
2023/07/17 11:55:20;;;;;;;6.40;5.20;;;34.30;28.80;;;;;;5061990;28;20442;-48
2023/07/17 11:57:50;;;;;;;7.90;4.60;;;34.50;28.50;;;;;;5066058;28;20196;-50
2023/07/17 12:00:16;;;;;;;7.13;4.77;;;34.60;27.60;;;;;;5064022;28;20504;-51
2023/07/17 12:02:44;;;;;;;7.50;5.37;;;34.80;27.30;;;;;;5065787;28;20433;-53
2023/07/17 12:05:09;;;;;;;6.40;5.13;;;34.90;27.50;;;;;;5075191;28;20972;-48
2023/07/17 12:07:35;;;;;;;5.50;4.70;;;35.00;27.70;;;;;;5080984;28;20434;-50
2023/07/17 12:10:00;;;;;;;5.07;4.57;;;35.10;26.80;;;;;;5067356;28;20556;-48
2023/07/17 12:12:26;;;;;;;7.03;5.57;;;35.00;27.40;;;;;;5063315;28;20333;-51
2023/07/17 12:14:52;;;;;;;5.17;4.77;;;35.00;27.80;;;;;;5059944;28;20640;-49
2023/07/17 12:17:17;;;;;;;7.10;5.13;;;35.10;27.50;;;;;;5059913;28;20576;-52
2023/07/17 12:19:43;;;;;;;4.87;4.43;;;35.10;27.80;;;;;;5064944;28;20268;-48
2023/07/17 12:22:08;;;;;;;8.47;6.00;;;35.10;27.50;;;;;;5059182;28;20258;-49
2023/07/17 12:24:34;;;;;;;5.37;4.87;;;35.00;27.70;;;;;;5061034;28;20188;-48
2023/07/17 12:26:59;;;;;;;5.53;5.07;;;35.00;27.00;;;;;;5062548;28;20205;-51
2023/07/17 12:29:25;;;;;;;5.47;4.90;;;34.90;27.20;;;;;;5075577;28;20278;-49
2023/07/17 12:31:51;;;;;;;6.70;5.13;;;35.20;28.00;;;;;;5067726;28;20191;-51
2023/07/17 12:34:16;;;;;;;6.03;5.00;;;35.30;27.10;;;;;;5057374;28;20188;-48
2023/07/17 12:36:42;;;;;;;6.27;4.97;;;35.30;27.30;;;;;;5066028;28;20202;-47
2023/07/17 12:39:15;;;;;;;5.17;4.77;;;35.30;27.00;;;;;;5065355;28;20216;-48
2023/07/17 12:41:41;;;;;;;8.17;5.50;;;35.40;27.00;;;;;;5069896;28;20194;-48
2023/07/17 12:44:08;;;;;;;5.17;4.70;;;35.40;27.20;;;;;;5068381;28;20438;-47